Time;durP1;ratioP1;P1;durP2;ratioP2;P2;SDS_P1;SDS_P2;PMS_P1;PMS_P2;Temp;Humidity;BMP_temperature;BMP_pressure;BME280_temperature;BME280_humidity;BME280_pressure;Samples;Min_cycle;Max_cycle;Signal;HPM_P1;HPM_P2
2023/11/21 00:02:15;;;;;;;;;;;;;;;;;;5005636;28;20348;-72
2023/11/21 00:04:42;;;;;;;;;;;;;;;;;;5012772;28;19930;-72
2023/11/21 00:07:09;;;;;;;;;;;;;;;;;;5013645;28;20025;-71
2023/11/21 00:09:36;;;;;;;;;;;;;;;;;;5013687;28;19964;-72
2023/11/21 00:12:03;;;;;;;;;;;;;;;;;;5010878;28;19930;-72
2023/11/21 00:14:31;;;;;;;;;;;;;;;;;;5032449;28;19932;-72
2023/11/21 00:16:58;;;;;;;;;;;;;;;;;;5018430;28;19926;-73
2023/11/21 00:19:25;;;;;;;;;;;;;;;;;;5004340;28;19932;-72
2023/11/21 00:21:52;;;;;;;;;;;;;;;;;;4994626;28;19986;-73
2023/11/21 00:24:19;;;;;;;;;;;;;;;;;;5013813;28;19979;-72
2023/11/21 00:26:48;;;;;;;;;;;;;;;;;;5012232;28;20444;-73
2023/11/21 00:29:17;;;;;;;;;;;;;;;;;;5013324;28;20016;-71
2023/11/21 00:31:44;;;;;;;;;;;;;;;;;;5013640;28;19965;-72
2023/11/21 00:34:11;;;;;;;;;;;;;;;;;;5011466;28;19960;-72
2023/11/21 00:36:38;;;;;;;;;;;;;;;;;;5013192;28;19931;-72
2023/11/21 00:39:05;;;;;;;;;;;;;;;;;;5013646;28;19972;-72
2023/11/21 00:41:32;;;;;;;;;;;;;;;;;;5005862;28;19926;-72
2023/11/21 00:44:00;;;;;;;;;;;;;;;;;;4993802;28;19926;-71
2023/11/21 00:46:28;;;;;;;;;;;;;;;;;;5012701;28;19929;-71
2023/11/21 00:48:55;;;;;;;;;;;;;;;;;;5012268;28;20005;-72
2023/11/21 00:51:22;;;;;;;;;;;;;;;;;;5013158;28;19925;-71
2023/11/21 00:53:49;;;;;;;;;;;;;;;;;;5017484;28;20424;-73
2023/11/21 00:56:16;;;;;;;;;;;;;;;;;;4999031;28;19925;-71
2023/11/21 00:58:46;;;;;;;;;;;;;;;;;;5010962;28;19961;-73
2023/11/21 01:01:13;;;;;;;;;;;;;;;;;;5016743;28;20321;-72
2023/11/21 01:03:40;;;;;;;;;;;;;;;;;;5015868;28;19972;-72
2023/11/21 01:06:08;;;;;;;;;;;;;;;;;;5012639;28;20309;-72
2023/11/21 01:08:35;;;;;;;;;;;;;;;;;;5014338;28;20400;-72
2023/11/21 01:11:03;;;;;;;;;;;;;;;;;;5002006;28;19925;-72
2023/11/21 01:13:30;;;;;;;;;;;;;;;;;;5017018;28;19932;-73
2023/11/21 01:15:57;;;;;;;;;;;;;;;;;;5028396;28;19976;-72
2023/11/21 01:18:25;;;;;;;;;;;;;;;;;;5014701;28;19976;-73
2023/11/21 01:20:52;;;;;;;;;;;;;;;;;;5015944;28;19926;-71
2023/11/21 01:23:19;;;;;;;;;;;;;;;;;;5016260;28;19968;-73
2023/11/21 01:25:46;;;;;;;;;;;;;;;;;;5015457;28;19976;-73
2023/11/21 01:28:13;;;;;;;;;;;;;;;;;;5015099;28;19932;-71
2023/11/21 01:30:41;;;;;;;;;;;;;;;;;;5016111;28;19932;-71
2023/11/21 01:33:08;;;;;;;;;;;;;;;;;;5015658;28;19944;-72
2023/11/21 01:35:35;;;;;;;;;;;;;;;;;;5014644;28;19980;-71
2023/11/21 01:38:03;;;;;;;;;;;;;;;;;;5016377;28;19972;-73
2023/11/21 01:40:30;;;;;;;;;;;;;;;;;;5015374;28;19925;-72
2023/11/21 01:42:58;;;;;;;;;;;;;;;;;;4996182;28;20008;-72
2023/11/21 01:45:26;;;;;;;;;;;;;;;;;;5012208;28;20340;-72
2023/11/21 01:47:53;;;;;;;;;;;;;;;;;;5015232;28;19925;-72
2023/11/21 01:50:21;;;;;;;;;;;;;;;;;;5016589;28;19926;-73
2023/11/21 01:52:48;;;;;;;;;;;;;;;;;;5016499;28;19929;-73
2023/11/21 01:55:16;;;;;;;;;;;;;;;;;;5015577;28;19930;-72
2023/11/21 01:57:43;;;;;;;;;;;;;;;;;;5015647;28;19931;-72
2023/11/21 02:00:16;;;;;;;;;;;;;;;;;;5013453;28;20116;-73
2023/11/21 02:02:43;;;;;;;;;;;;;;;;;;5011647;28;19926;-72
2023/11/21 02:05:10;;;;;;;;;;;;;;;;;;5008848;28;19925;-73
2023/11/21 02:07:37;;;;;;;;;;;;;;;;;;5014257;28;19925;-73
2023/11/21 02:10:05;;;;;;;;;;;;;;;;;;5015017;28;19925;-70
2023/11/21 02:12:32;;;;;;;;;;;;;;;;;;5015201;28;19934;-72
2023/11/21 02:14:59;;;;;;;;;;;;;;;;;;5014544;28;19929;-71
2023/11/21 02:17:27;;;;;;;;;;;;;;;;;;5014123;28;19925;-72
2023/11/21 02:19:54;;;;;;;;;;;;;;;;;;4996258;28;19926;-73
2023/11/21 02:22:22;;;;;;;;;;;;;;;;;;5004695;28;20033;-73
2023/11/21 02:24:49;;;;;;;;;;;;;;;;;;5015984;28;19932;-74
2023/11/21 02:27:21;;;;;;;;;;;;;;;;;;5014078;28;19925;-72
2023/11/21 02:29:48;;;;;;;;;;;;;;;;;;5015600;28;20012;-72
2023/11/21 02:32:18;;;;;;;;;;;;;;;;;;5012451;28;20297;-72
2023/11/21 02:34:45;;;;;;;;;;;;;;;;;;5003292;28;20012;-72
2023/11/21 02:37:12;;;;;;;;;;;;;;;;;;5004735;28;20377;-72
2023/11/21 02:39:40;;;;;;;;;;;;;;;;;;5012095;28;20354;-73
2023/11/21 02:42:07;;;;;;;;;;;;;;;;;;5013730;28;19965;-72
2023/11/21 02:44:34;;;;;;;;;;;;;;;;;;5014038;28;19926;-74
2023/11/21 02:47:01;;;;;;;;;;;;;;;;;;4998326;28;19933;-73
2023/11/21 02:49:29;;;;;;;;;;;;;;;;;;5015043;28;19969;-75
2023/11/21 02:51:56;;;;;;;;;;;;;;;;;;5013004;28;19933;-74
2023/11/21 02:54:23;;;;;;;;;;;;;;;;;;5011604;28;19930;-73
2023/11/21 02:56:50;;;;;;;;;;;;;;;;;;5013689;28;19965;-72
2023/11/21 02:59:17;;;;;;;;;;;;;;;;;;5014970;28;19931;-73
2023/11/21 03:01:44;;;;;;;;;;;;;;;;;;5015118;28;19956;-73
2023/11/21 03:04:15;;;;;;;;;;;;;;;;;;5027886;28;20383;-73
2023/11/21 03:06:42;;;;;;;;;;;;;;;;;;5015993;28;20011;-72
2023/11/21 03:09:09;;;;;;;;;;;;;;;;;;5014473;28;19973;-73
2023/11/21 03:11:36;;;;;;;;;;;;;;;;;;5013931;28;20388;-72
2023/11/21 03:14:03;;;;;;;;;;;;;;;;;;5000437;28;19991;-72
2023/11/21 03:16:31;;;;;;;;;;;;;;;;;;5007833;28;19933;-73
2023/11/21 03:18:58;;;;;;;;;;;;;;;;;;5008392;28;20004;-71
2023/11/21 03:21:26;;;;;;;;;;;;;;;;;;4997910;28;21944;-72
2023/11/21 03:23:53;;;;;;;;;;;;;;;;;;5014213;28;19933;-72
2023/11/21 03:26:20;;;;;;;;;;;;;;;;;;5011157;28;20012;-71
2023/11/21 03:28:47;;;;;;;;;;;;;;;;;;5011410;28;19980;-72
2023/11/21 03:31:16;;;;;;;;;;;;;;;;;;5014002;28;20345;-73
2023/11/21 03:33:43;;;;;;;;;;;;;;;;;;5006070;28;19975;-72
2023/11/21 03:36:10;;;;;;;;;;;;;;;;;;5013104;28;20468;-71
2023/11/21 03:38:37;;;;;;;;;;;;;;;;;;4996411;28;19980;-73
2023/11/21 03:41:04;;;;;;;;;;;;;;;;;;5008084;28;19925;-72
2023/11/21 03:43:31;;;;;;;;;;;;;;;;;;5004341;28;19926;-74
2023/11/21 03:45:58;;;;;;;;;;;;;;;;;;4999831;28;19925;-73
2023/11/21 03:48:25;;;;;;;;;;;;;;;;;;5011793;28;20002;-71
2023/11/21 03:50:52;;;;;;;;;;;;;;;;;;5013767;28;19987;-72
2023/11/21 03:53:19;;;;;;;;;;;;;;;;;;5013675;28;20451;-73
2023/11/21 03:55:46;;;;;;;;;;;;;;;;;;5013260;28;20312;-73
2023/11/21 03:58:14;;;;;;;;;;;;;;;;;;5011943;28;20069;-71
2023/11/21 04:00:41;;;;;;;;;;;;;;;;;;5003558;28;19977;-72
2023/11/21 04:03:10;;;;;;;;;;;;;;;;;;5001348;28;20389;-72
2023/11/21 04:05:37;;;;;;;;;;;;;;;;;;5014270;28;20012;-72
2023/11/21 04:08:04;;;;;;;;;;;;;;;;;;5013719;28;19929;-72
2023/11/21 04:10:31;;;;;;;;;;;;;;;;;;5014020;28;19926;-72
2023/11/21 04:12:58;;;;;;;;;;;;;;;;;;5012820;28;19961;-72
2023/11/21 04:15:25;;;;;;;;;;;;;;;;;;5013451;28;19976;-72
2023/11/21 04:17:52;;;;;;;;;;;;;;;;;;5008191;28;19925;-71
2023/11/21 04:20:19;;;;;;;;;;;;;;;;;;5012059;28;20012;-71
2023/11/21 04:22:46;;;;;;;;;;;;;;;;;;4997593;28;19925;-71
2023/11/21 04:25:13;;;;;;;;;;;;;;;;;;4993762;28;20020;-71
2023/11/21 04:27:40;;;;;;;;;;;;;;;;;;4993735;28;20024;-72
2023/11/21 04:30:07;;;;;;;;;;;;;;;;;;5012705;28;20019;-73
2023/11/21 04:32:34;;;;;;;;;;;;;;;;;;5013644;28;20008;-72
2023/11/21 04:35:01;;;;;;;;;;;;;;;;;;5000278;28;19969;-73
2023/11/21 04:37:28;;;;;;;;;;;;;;;;;;4998822;28;19968;-72
2023/11/21 04:39:55;;;;;;;;;;;;;;;;;;5013257;28;19929;-73
2023/11/21 04:42:22;;;;;;;;;;;;;;;;;;5012091;28;19985;-72
2023/11/21 04:44:49;;;;;;;;;;;;;;;;;;5012888;28;20385;-72
2023/11/21 04:47:16;;;;;;;;;;;;;;;;;;5013520;28;20367;-72
2023/11/21 04:49:43;;;;;;;;;;;;;;;;;;5012939;28;19926;-73
2023/11/21 04:52:10;;;;;;;;;;;;;;;;;;5007624;28;19968;-71
2023/11/21 04:54:37;;;;;;;;;;;;;;;;;;5013725;28;19929;-74
2023/11/21 04:57:04;;;;;;;;;;;;;;;;;;5014364;28;20368;-71
2023/11/21 04:59:31;;;;;;;;;;;;;;;;;;5013382;28;20016;-71
2023/11/21 05:02:00;;;;;;;;;;;;;;;;;;5003354;28;19925;-71
2023/11/21 05:04:27;;;;;;;;;;;;;;;;;;5012557;28;19929;-73
2023/11/21 05:06:54;;;;;;;;;;;;;;;;;;5013064;28;19933;-72
2023/11/21 05:09:22;;;;;;;;;;;;;;;;;;5011648;28;20388;-72
2023/11/21 05:11:49;;;;;;;;;;;;;;;;;;5012734;28;19979;-72
2023/11/21 05:14:16;;;;;;;;;;;;;;;;;;5013086;28;20447;-72
2023/11/21 05:16:43;;;;;;;;;;;;;;;;;;4995698;28;19956;-72
2023/11/21 05:19:12;;;;;;;;;;;;;;;;;;5007389;28;19973;-72
2023/11/21 05:21:39;;;;;;;;;;;;;;;;;;5012796;28;19926;-72
2023/11/21 05:24:06;;;;;;;;;;;;;;;;;;5012952;28;20004;-73
2023/11/21 05:26:33;;;;;;;;;;;;;;;;;;5007718;28;20343;-72
2023/11/21 05:29:00;;;;;;;;;;;;;;;;;;5009674;28;19972;-72
2023/11/21 05:31:27;;;;;;;;;;;;;;;;;;5011152;28;19925;-72
2023/11/21 05:33:54;;;;;;;;;;;;;;;;;;5006532;28;19926;-72
2023/11/21 05:36:21;;;;;;;;;;;;;;;;;;5010714;28;20012;-71
2023/11/21 05:38:48;;;;;;;;;;;;;;;;;;5014705;28;19980;-71
2023/11/21 05:41:15;;;;;;;;;;;;;;;;;;5015492;28;20011;-72
2023/11/21 05:43:42;;;;;;;;;;;;;;;;;;4997954;28;20008;-71
2023/11/21 05:46:09;;;;;;;;;;;;;;;;;;5011113;28;19926;-72
2023/11/21 05:48:37;;;;;;;;;;;;;;;;;;5015212;28;19933;-71
2023/11/21 05:51:04;;;;;;;;;;;;;;;;;;5015865;28;19932;-71
2023/11/21 05:53:31;;;;;;;;;;;;;;;;;;5016651;28;19949;-72
2023/11/21 05:55:58;;;;;;;;;;;;;;;;;;5015122;28;20012;-73
2023/11/21 05:58:25;;;;;;;;;;;;;;;;;;5013963;28;19925;-71
2023/11/21 06:00:52;;;;;;;;;;;;;;;;;;4996481;28;19981;-70
2023/11/21 06:03:19;;;;;;;;;;;;;;;;;;5005402;28;20347;-70
2023/11/21 06:05:46;;;;;;;;;;;;;;;;;;5013297;28;19983;-70
2023/11/21 06:08:16;;;;;;;;;;;;;;;;;;5013597;28;20024;-70
2023/11/21 06:10:43;;;;;;;;;;;;;;;;;;5000275;28;20461;-72
2023/11/21 06:13:10;;;;;;;;;;;;;;;;;;5016255;28;19961;-71
2023/11/21 06:15:37;;;;;;;;;;;;;;;;;;5013830;28;19926;-71
2023/11/21 06:18:06;;;;;;;;;;;;;;;;;;5000893;28;19969;-72
2023/11/21 06:20:33;;;;;;;;;;;;;;;;;;5010169;28;19929;-72
2023/11/21 06:23:03;;;;;;;;;;;;;;;;;;5014003;28;19971;-71
2023/11/21 06:25:32;;;;;;;;;;;;;;;;;;5014975;28;19926;-71
2023/11/21 06:27:59;;;;;;;;;;;;;;;;;;5126788;22;19926;-71
2023/11/21 06:30:27;;;;;;;;;;;;;;;;;;5014423;28;20020;-71
2023/11/21 06:32:54;;;;;;;;;;;;;;;;;;5013233;28;20344;-72
2023/11/21 06:35:21;;;;;;;;;;;;;;;;;;5015481;28;19947;-70
2023/11/21 06:37:49;;;;;;;;;;;;;;;;;;5015091;28;19925;-73
2023/11/21 06:40:16;;;;;;;;;;;;;;;;;;5010962;28;19932;-72
2023/11/21 06:42:44;;;;;;;;;;;;;;;;;;5000647;28;19944;-68
2023/11/21 06:45:11;;;;;;;;;;;;;;;;;;5010955;28;20296;-70
2023/11/21 06:47:39;;;;;;;;;;;;;;;;;;5012423;28;19926;-70
2023/11/21 06:50:07;;;;;;;;;;;;;;;;;;5002211;28;20415;-70
2023/11/21 06:52:34;;;;;;;;;;;;;;;;;;5013199;28;20001;-70
2023/11/21 06:55:01;;;;;;;;;;;;;;;;;;5011228;28;20020;-70
2023/11/21 06:57:28;;;;;;;;;;;;;;;;;;5004140;28;20372;-69
2023/11/21 06:59:57;;;;;;;;;;;;;;;;;;5009139;28;19945;-69
2023/11/21 07:02:24;;;;;;;;;;;;;;;;;;5005476;28;19930;-69
2023/11/21 07:04:51;;;;;;;;;;;;;;;;;;5009214;28;19926;-70
2023/11/21 07:07:18;;;;;;;;;;;;;;;;;;5011838;28;20004;-70
2023/11/21 07:09:45;;;;;;;;;;;;;;;;;;5012284;28;20027;-69
2023/11/21 07:12:12;;;;;;;;;;;;;;;;;;5010643;28;20438;-69
2023/11/21 07:14:41;;;;;;;;;;;;;;;;;;5010544;28;20362;-68
2023/11/21 07:17:08;;;;;;;;;;;;;;;;;;5012606;28;20016;-70
2023/11/21 07:19:35;;;;;;;;;;;;;;;;;;5007965;28;19940;-70
2023/11/21 07:22:02;;;;;;;;;;;;;;;;;;5006545;28;19982;-70
2023/11/21 07:24:31;;;;;;;;;;;;;;;;;;5007494;28;19933;-69
2023/11/21 07:26:58;;;;;;;;;;;;;;;;;;5005989;28;19930;-69
2023/11/21 07:29:26;;;;;;;;;;;;;;;;;;5007138;28;19930;-69
2023/11/21 07:31:53;;;;;;;;;;;;;;;;;;5007169;28;19925;-69
2023/11/21 07:34:20;;;;;;;;;;;;;;;;;;5005062;28;20439;-70
2023/11/21 07:36:47;;;;;;;;;;;;;;;;;;5009138;28;19934;-70
2023/11/21 07:39:16;;;;;;;;;;;;;;;;;;5002136;28;19925;-69
2023/11/21 07:41:48;;;;;;;;;;;;;;;;;;4997710;28;20030;-72
2023/11/21 07:44:15;;;;;;;;;;;;;;;;;;4999638;28;19926;-71
2023/11/21 07:46:42;;;;;;;;;;;;;;;;;;5000647;28;19925;-70
2023/11/21 07:49:10;;;;;;;;;;;;;;;;;;4996736;28;20406;-69
2023/11/21 07:51:37;;;;;;;;;;;;;;;;;;5000054;28;19926;-71
2023/11/21 07:54:04;;;;;;;;;;;;;;;;;;5007088;28;20353;-69
2023/11/21 07:56:31;;;;;;;;;;;;;;;;;;5008846;28;20012;-69
2023/11/21 07:58:58;;;;;;;;;;;;;;;;;;5001260;28;20040;-70
2023/11/21 08:01:24;;;;;;;;;;;;;;;;;;5016014;28;20008;-70
2023/11/21 08:03:52;;;;;;;;;;;;;;;;;;4999994;28;20013;-70
2023/11/21 08:06:19;;;;;;;;;;;;;;;;;;5009720;28;19976;-70
2023/11/21 08:08:47;;;;;;;;;;;;;;;;;;5011365;28;20013;-69
2023/11/21 08:11:14;;;;;;;;;;;;;;;;;;5011326;28;19925;-70
2023/11/21 08:13:41;;;;;;;;;;;;;;;;;;5015627;28;20328;-70
2023/11/21 08:16:08;;;;;;;;;;;;;;;;;;4999370;28;19930;-69
2023/11/21 08:18:35;;;;;;;;;;;;;;;;;;5010198;28;20464;-70
2023/11/21 08:21:03;;;;;;;;;;;;;;;;;;5006740;28;19933;-69
2023/11/21 08:23:30;;;;;;;;;;;;;;;;;;5010807;28;19925;-71
2023/11/21 08:25:57;;;;;;;;;;;;;;;;;;5015617;28;20016;-71
2023/11/21 08:28:25;;;;;;;;;;;;;;;;;;5016594;28;19969;-71
2023/11/21 08:30:52;;;;;;;;;;;;;;;;;;5010624;28;19933;-69
2023/11/21 08:33:19;;;;;;;;;;;;;;;;;;5003107;28;20318;-70
2023/11/21 08:35:46;;;;;;;;;;;;;;;;;;5013140;28;20027;-67
2023/11/21 08:38:13;;;;;;;;;;;;;;;;;;5012831;28;20068;-68
2023/11/21 08:40:40;;;;;;;;;;;;;;;;;;5009008;28;20025;-69
2023/11/21 08:43:08;;;;;;;;;;;;;;;;;;4999579;28;20018;-70
2023/11/21 08:45:35;;;;;;;;;;;;;;;;;;5008186;28;20292;-70
2023/11/21 08:48:02;;;;;;;;;;;;;;;;;;5001472;28;19929;-70
2023/11/21 08:50:29;;;;;;;;;;;;;;;;;;5005530;28;20428;-70
2023/11/21 08:52:56;;;;;;;;;;;;;;;;;;5011019;28;20371;-70
2023/11/21 08:55:23;;;;;;;;;;;;;;;;;;5009889;28;20019;-70
2023/11/21 08:57:50;;;;;;;;;;;;;;;;;;5009922;28;19925;-70
2023/11/21 09:00:19;;;;;;;;;;;;;;;;;;5000475;28;19977;-71
2023/11/21 09:02:46;;;;;;;;;;;;;;;;;;5004776;28;19929;-70
2023/11/21 09:05:13;;;;;;;;;;;;;;;;;;5003105;28;20312;-70
2023/11/21 09:07:40;;;;;;;;;;;;;;;;;;4999423;28;20044;-70
2023/11/21 09:10:07;;;;;;;;;;;;;;;;;;5001808;28;20067;-71
2023/11/21 09:12:34;;;;;;;;;;;;;;;;;;5005637;28;19926;-71
2023/11/21 09:15:01;;;;;;;;;;;;;;;;;;5011269;28;19926;-69
2023/11/21 09:17:28;;;;;;;;;;;;;;;;;;5008807;28;20019;-69
2023/11/21 09:19:56;;;;;;;;;;;;;;;;;;5012673;28;19987;-69
2023/11/21 09:22:24;;;;;;;;;;;;;;;;;;5013675;28;20315;-69
2023/11/21 09:24:51;;;;;;;;;;;;;;;;;;5010332;28;19925;-69
2023/11/21 09:27:18;;;;;;;;;;;;;;;;;;5017781;28;19934;-69
2023/11/21 09:29:47;;;;;;;;;;;;;;;;;;5014712;28;20028;-68
2023/11/21 09:32:16;;;;;;;;;;;;;;;;;;5032231;28;20303;-68
2023/11/21 09:34:43;;;;;;;;;;;;;;;;;;5018259;28;19929;-69
2023/11/21 09:37:10;;;;;;;;;;;;;;;;;;5024906;28;20392;-69
2023/11/21 09:39:39;;;;;;;;;;;;;;;;;;5009842;28;20025;-69
2023/11/21 09:42:06;;;;;;;;;;;;;;;;;;5004723;28;19936;-68
2023/11/21 09:44:33;;;;;;;;;;;;;;;;;;5009943;28;19932;-68
2023/11/21 09:47:00;;;;;;;;;;;;;;;;;;5028235;28;19926;-69
2023/11/21 09:49:27;;;;;;;;;;;;;;;;;;5010451;28;19961;-68
2023/11/21 09:51:55;;;;;;;;;;;;;;;;;;5013072;28;19979;-68
2023/11/21 09:54:22;;;;;;;;;;;;;;;;;;5008870;28;19929;-69
2023/11/21 09:56:50;;;;;;;;;;;;;;;;;;5005991;28;19929;-69
2023/11/21 09:59:17;;;;;;;;;;;;;;;;;;5012508;28;20011;-68
2023/11/21 10:01:44;;;;;;;;;;;;;;;;;;5019490;28;19933;-69
2023/11/21 10:04:12;;;;;;;;;;;;;;;;;;5010343;28;19932;-69
2023/11/21 10:06:39;;;;;;;;;;;;;;;;;;5017502;28;20000;-69
2023/11/21 10:09:11;;;;;;;;;;;;;;;;;;5012279;28;19926;-69
2023/11/21 10:11:38;;;;;;;;;;;;;;;;;;5012674;28;19925;-69
2023/11/21 10:14:05;;;;;;;;;;;;;;;;;;5006761;28;20012;-69
2023/11/21 10:16:32;;;;;;;;;;;;;;;;;;5015707;28;20009;-69
2023/11/21 10:18:59;;;;;;;;;;;;;;;;;;4997242;28;19957;-68
2023/11/21 10:21:26;;;;;;;;;;;;;;;;;;5011435;28;19925;-69
2023/11/21 10:23:53;;;;;;;;;;;;;;;;;;5008848;28;20016;-69
2023/11/21 10:26:20;;;;;;;;;;;;;;;;;;5008992;28;20315;-69
2023/11/21 10:28:47;;;;;;;;;;;;;;;;;;5012910;28;20418;-69
2023/11/21 10:31:14;;;;;;;;;;;;;;;;;;5009439;28;20348;-69
2023/11/21 10:33:41;;;;;;;;;;;;;;;;;;5009608;28;19972;-69
2023/11/21 10:36:08;;;;;;;;;;;;;;;;;;5003659;28;19925;-70
2023/11/21 10:38:37;;;;;;;;;;;;;;;;;;5011211;28;20472;-66
2023/11/21 10:41:07;;;;;;;;;;;;;;;;;;5003696;28;19925;-70
2023/11/21 10:43:34;;;;;;;;;;;;;;;;;;5010026;28;19932;-68
2023/11/21 10:46:01;;;;;;;;;;;;;;;;;;5008402;28;20028;-67
2023/11/21 10:48:28;;;;;;;;;;;;;;;;;;5004793;28;19932;-68
2023/11/21 10:50:56;;;;;;;;;;;;;;;;;;5009433;28;19929;-68
2023/11/21 10:53:23;;;;;;;;;;;;;;;;;;5007531;28;19933;-69
2023/11/21 10:55:50;;;;;;;;;;;;;;;;;;5009053;28;19953;-69
2023/11/21 10:58:17;;;;;;;;;;;;;;;;;;5012829;28;19925;-68
2023/11/21 11:00:46;;;;;;;;;;;;;;;;;;5007810;28;19926;-69
2023/11/21 11:03:14;;;;;;;;;;;;;;;;;;5003200;28;19930;-69
2023/11/21 11:05:41;;;;;;;;;;;;;;;;;;5002377;28;20385;-69
2023/11/21 11:08:08;;;;;;;;;;;;;;;;;;5006367;28;20408;-69
2023/11/21 11:10:35;;;;;;;;;;;;;;;;;;5010289;28;19992;-68
2023/11/21 11:13:02;;;;;;;;;;;;;;;;;;5009223;28;19961;-68
2023/11/21 11:15:29;;;;;;;;;;;;;;;;;;5005591;28;20057;-68
2023/11/21 11:17:57;;;;;;;;;;;;;;;;;;4998737;28;19929;-67
2023/11/21 11:20:24;;;;;;;;;;;;;;;;;;5003923;28;19932;-68
2023/11/21 11:22:51;;;;;;;;;;;;;;;;;;4998693;28;19925;-67
2023/11/21 11:25:18;;;;;;;;;;;;;;;;;;5005267;28;20927;-68
2023/11/21 11:27:47;;;;;;;;;;;;;;;;;;5003621;28;20015;-67
2023/11/21 11:30:13;;;;;;;;;;;;;;;;;;5006157;28;20376;-67
2023/11/21 11:32:40;;;;;;;;;;;;;;;;;;5006619;28;20004;-67
2023/11/21 11:35:07;;;;;;;;;;;;;;;;;;5002119;28;19933;-68
2023/11/21 11:37:34;;;;;;;;;;;;;;;;;;5000579;28;19933;-68
2023/11/21 11:40:01;;;;;;;;;;;;;;;;;;5003671;28;20001;-68
2023/11/21 11:42:30;;;;;;;;;;;;;;;;;;5008661;28;19926;-68
2023/11/21 11:44:57;;;;;;;;;;;;;;;;;;5005081;28;19929;-68
2023/11/21 11:47:24;;;;;;;;;;;;;;;;;;5006089;28;20039;-68
2023/11/21 11:49:51;;;;;;;;;;;;;;;;;;5007511;28;19925;-68
2023/11/21 11:52:18;;;;;;;;;;;;;;;;;;5003795;28;19926;-68
2023/11/21 11:54:45;;;;;;;;;;;;;;;;;;5008983;28;20108;-67
2023/11/21 11:57:12;;;;;;;;;;;;;;;;;;5005762;28;19989;-68
2023/11/21 11:59:39;;;;;;;;;;;;;;;;;;5007558;28;20016;-68
2023/11/21 12:02:06;;;;;;;;;;;;;;;;;;5006129;28;19925;-69
2023/11/21 12:04:35;;;;;;;;;;;;;;;;;;5011486;28;20412;-68
2023/11/21 12:07:03;;;;;;;;;;;;;;;;;;5006505;28;19979;-68
2023/11/21 12:09:31;;;;;;;;;;;;;;;;;;5009512;28;19932;-68
2023/11/21 12:11:58;;;;;;;;;;;;;;;;;;5007977;28;19932;-68
2023/11/21 12:14:25;;;;;;;;;;;;;;;;;;5009485;28;19926;-67
2023/11/21 12:16:52;;;;;;;;;;;;;;;;;;5002710;28;19933;-67
2023/11/21 12:19:20;;;;;;;;;;;;;;;;;;5000787;28;19926;-68
2023/11/21 12:21:48;;;;;;;;;;;;;;;;;;5006259;28;20016;-67
2023/11/21 12:24:16;;;;;;;;;;;;;;;;;;5001736;28;20392;-67
2023/11/21 12:26:43;;;;;;;;;;;;;;;;;;5002353;28;19925;-67
2023/11/21 12:29:10;;;;;;;;;;;;;;;;;;5007078;28;19925;-68
2023/11/21 12:31:37;;;;;;;;;;;;;;;;;;5005046;28;20025;-68
2023/11/21 12:34:06;;;;;;;;;;;;;;;;;;5008498;28;19925;-68
2023/11/21 12:36:34;;;;;;;;;;;;;;;;;;5005863;28;20380;-67
2023/11/21 12:39:02;;;;;;;;;;;;;;;;;;4999506;28;19937;-68
2023/11/21 12:41:30;;;;;;;;;;;;;;;;;;5004677;28;19932;-68
2023/11/21 12:43:57;;;;;;;;;;;;;;;;;;5005869;28;19933;-69
2023/11/21 12:46:25;;;;;;;;;;;;;;;;;;4998137;28;19933;-68
2023/11/21 12:48:52;;;;;;;;;;;;;;;;;;5000847;28;19933;-68
2023/11/21 12:51:20;;;;;;;;;;;;;;;;;;5011925;28;19972;-69
2023/11/21 12:53:47;;;;;;;;;;;;;;;;;;5019460;28;19929;-68
2023/11/21 12:56:16;;;;;;;;;;;;;;;;;;5003826;28;20400;-69
2023/11/21 12:58:44;;;;;;;;;;;;;;;;;;5004809;28;19926;-68
2023/11/21 13:01:12;;;;;;;;;;;;;;;;;;5007954;28;19930;-68
2023/11/21 13:03:40;;;;;;;;;;;;;;;;;;5008277;28;19965;-69
2023/11/21 13:06:07;;;;;;;;;;;;;;;;;;4998509;28;19929;-69
2023/11/21 13:08:34;;;;;;;;;;;;;;;;;;4997220;28;19980;-68
2023/11/21 13:11:02;;;;;;;;;;;;;;;;;;5009625;28;19996;-69
2023/11/21 13:13:29;;;;;;;;;;;;;;;;;;5009904;28;19926;-68
2023/11/21 13:15:56;;;;;;;;;;;;;;;;;;5011582;28;20293;-69
2023/11/21 13:18:23;;;;;;;;;;;;;;;;;;5009682;28;19933;-68
2023/11/21 13:20:50;;;;;;;;;;;;;;;;;;5006417;28;19925;-70
2023/11/21 13:23:17;;;;;;;;;;;;;;;;;;5002879;28;19925;-69
2023/11/21 13:25:45;;;;;;;;;;;;;;;;;;4998266;28;19981;-68
2023/11/21 13:28:12;;;;;;;;;;;;;;;;;;5005439;28;19960;-68
2023/11/21 13:30:39;;;;;;;;;;;;;;;;;;5015223;28;19972;-69
2023/11/21 13:33:07;;;;;;;;;;;;;;;;;;5021627;28;20013;-69
2023/11/21 13:35:37;;;;;;;;;;;;;;;;;;5015290;28;20379;-69
2023/11/21 13:38:05;;;;;;;;;;;;;;;;;;5009538;28;19937;-68
2023/11/21 13:40:34;;;;;;;;;;;;;;;;;;5019950;28;19928;-69
2023/11/21 13:43:04;;;;;;;;;;;;;;;;;;5018452;28;19949;-69
2023/11/21 13:45:31;;;;;;;;;;;;;;;;;;5026649;28;20281;-69
2023/11/21 13:47:59;;;;;;;;;;;;;;;;;;5012583;28;19926;-68
2023/11/21 13:50:32;;;;;;;;;;;;;;;;;;5015518;28;19932;-68
2023/11/21 13:53:03;;;;;;;;;;;;;;;;;;5011974;28;19925;-68
2023/11/21 13:55:30;;;;;;;;;;;;;;;;;;5017291;28;19931;-68
2023/11/21 13:57:57;;;;;;;;;;;;;;;;;;5015417;28;19929;-68
2023/11/21 14:00:41;;;;;;;;;;;;;;;;;;5024527;28;19983;-69
2023/11/21 14:03:17;;;;;;;;;;;;;;;;;;5019011;28;19925;-68
2023/11/21 14:05:46;;;;;;;;;;;;;;;;;;5029208;28;19925;-68
2023/11/21 14:08:16;;;;;;;;;;;;;;;;;;5019289;28;19929;-68
2023/11/21 14:10:45;;;;;;;;;;;;;;;;;;5013686;28;19932;-69
2023/11/21 14:13:12;;;;;;;;;;;;;;;;;;5014297;28;20443;-65
2023/11/21 14:15:41;;;;;;;;;;;;;;;;;;5022253;28;19925;-71
2023/11/21 14:18:10;;;;;;;;;;;;;;;;;;5009572;28;19933;-70
2023/11/21 14:20:37;;;;;;;;;;;;;;;;;;5009833;28;19925;-71
2023/11/21 14:23:05;;;;;;;;;;;;;;;;;;5019391;28;19926;-71
2023/11/21 14:25:33;;;;;;;;;;;;;;;;;;5026078;28;19975;-69
2023/11/21 14:28:00;;;;;;;;;;;;;;;;;;5019902;28;19925;-71
2023/11/21 14:30:28;;;;;;;;;;;;;;;;;;5028904;28;20467;-71
2023/11/21 14:32:56;;;;;;;;;;;;;;;;;;4996958;28;20373;-70
2023/11/21 14:35:23;;;;;;;;;;;;;;;;;;5019494;28;20380;-69
2023/11/21 14:37:50;;;;;;;;;;;;;;;;;;5025106;28;20023;-70
2023/11/21 14:40:21;;;;;;;;;;;;;;;;;;5025415;28;19944;-69
2023/11/21 14:42:48;;;;;;;;;;;;;;;;;;5029287;28;19987;-70
2023/11/21 14:45:19;;;;;;;;;;;;;;;;;;5013474;28;20401;-69
2023/11/21 14:47:56;;;;;;;;;;;;;;;;;;5007946;28;19975;-69
2023/11/21 14:53:08;;;;;;;;;;;;;;;;;;5015009;28;19932;-70
2023/11/21 14:55:45;;;;;;;;;;;;;;;;;;5026845;28;20438;-71
2023/11/21 14:58:19;;;;;;;;;;;;;;;;;;5016154;28;19925;-71
2023/11/21 15:00:45;;;;;;;;;;;;;;;;;;5021496;28;19930;-68
2023/11/21 15:03:26;;;;;;;;;;;;;;;;;;5006051;28;19984;-68
2023/11/21 15:05:53;;;;;;;;;;;;;;;;;;5008435;28;19965;-69
2023/11/21 15:08:26;;;;;;;;;;;;;;;;;;5009779;28;19925;-67
2023/11/21 15:10:53;;;;;;;;;;;;;;;;;;5013251;28;20025;-66
2023/11/21 15:13:21;;;;;;;;;;;;;;;;;;5013645;28;19926;-66
2023/11/21 15:15:47;;;;;;;;;;;;;;;;;;5020873;28;19925;-68
2023/11/21 15:18:14;;;;;;;;;;;;;;;;;;5008719;28;20291;-68
2023/11/21 15:20:43;;;;;;;;;;;;;;;;;;5003958;28;19979;-68
2023/11/21 15:23:10;;;;;;;;;;;;;;;;;;5008930;28;19925;-67
2023/11/21 15:25:37;;;;;;;;;;;;;;;;;;5004339;28;19943;-69
2023/11/21 15:28:04;;;;;;;;;;;;;;;;;;5008665;28;20008;-69
2023/11/21 15:30:31;;;;;;;;;;;;;;;;;;5002744;28;19926;-68
2023/11/21 15:32:58;;;;;;;;;;;;;;;;;;5006310;28;20002;-69
2023/11/21 15:35:27;;;;;;;;;;;;;;;;;;5012065;28;20024;-68
2023/11/21 15:37:57;;;;;;;;;;;;;;;;;;5004704;28;20400;-69
2023/11/21 15:40:24;;;;;;;;;;;;;;;;;;5007946;28;19925;-69
2023/11/21 15:42:52;;;;;;;;;;;;;;;;;;5009381;28;20461;-69
2023/11/21 15:45:21;;;;;;;;;;;;;;;;;;5004635;28;19929;-70
2023/11/21 15:47:48;;;;;;;;;;;;;;;;;;5006724;28;19925;-68
2023/11/21 15:50:15;;;;;;;;;;;;;;;;;;5011027;28;19949;-69
2023/11/21 15:52:43;;;;;;;;;;;;;;;;;;5009618;28;19983;-69
2023/11/21 15:55:10;;;;;;;;;;;;;;;;;;5007430;28;19933;-69
2023/11/21 15:57:37;;;;;;;;;;;;;;;;;;5009208;28;19933;-69
2023/11/21 16:00:11;;;;;;;;;;;;;;;;;;5011115;28;19969;-69
2023/11/21 16:02:38;;;;;;;;;;;;;;;;;;5009541;28;21062;-69
2023/11/21 16:05:07;;;;;;;;;;;;;;;;;;5000564;28;24074;-69
2023/11/21 16:07:35;;;;;;;;;;;;;;;;;;5006798;28;19934;-69
2023/11/21 16:10:02;;;;;;;;;;;;;;;;;;5008615;28;19933;-69
2023/11/21 16:12:29;;;;;;;;;;;;;;;;;;5008301;28;20371;-69
2023/11/21 16:14:56;;;;;;;;;;;;;;;;;;5010366;28;20011;-69
2023/11/21 16:17:23;;;;;;;;;;;;;;;;;;5005206;28;19976;-70
2023/11/21 16:19:52;;;;;;;;;;;;;;;;;;5008474;28;19934;-69
2023/11/21 16:22:19;;;;;;;;;;;;;;;;;;5008531;28;20296;-70
2023/11/21 16:24:46;;;;;;;;;;;;;;;;;;5011112;28;19930;-69
2023/11/21 16:27:13;;;;;;;;;;;;;;;;;;5009414;28;19995;-70
2023/11/21 16:29:40;;;;;;;;;;;;;;;;;;5009617;28;19933;-68
2023/11/21 16:32:07;;;;;;;;;;;;;;;;;;4993446;28;19929;-68
2023/11/21 16:34:35;;;;;;;;;;;;;;;;;;5008977;28;19926;-68
2023/11/21 16:37:03;;;;;;;;;;;;;;;;;;5003242;28;20296;-68
2023/11/21 16:39:30;;;;;;;;;;;;;;;;;;5006769;28;19988;-68
2023/11/21 16:41:58;;;;;;;;;;;;;;;;;;5002502;28;20301;-69
2023/11/21 16:44:25;;;;;;;;;;;;;;;;;;5007375;28;19925;-69
2023/11/21 16:46:53;;;;;;;;;;;;;;;;;;5003675;28;20016;-69
2023/11/21 16:49:20;;;;;;;;;;;;;;;;;;5010832;28;19994;-68
2023/11/21 16:51:48;;;;;;;;;;;;;;;;;;5005667;28;19928;-68